Google Maps JavaScript API Example
Pilot Flight Report # 93823 Submitted by : AST204 on 2020-03-29
Date: 2020-03-29Aircraft: Airbus A321-200
Flight No.: AST21469Distance (Nm): 388.18
Departure: KSFO - San Francisco IntlDestination: KSAN - San Diego Intl-Lindbergh
 TimeFuelWeightSpeeds  
Out (Taxi)2247Z40751 lbs165840 lbs Flight RulesIFR
Off (Takeoff)2257Z 164775 lbs166 ktsFlight Level37000
On (Landing)0002Z 155289 lbs124 ktsVSTD-388 ft/min
In (Ramp)0004Z29979 lbs155062 lbs ZFW125069 lbs
Flight1.10  -  1:059479 lbs  Pax0
Block1.28  -  1:1710772 lbs  Cargo0
Departure WeatherKSFO 282243Z 25623KT 20SM SKC 18/7 A2996
Destination WeatherKSAN 280004Z 18807KT 6SM OVC014 BKN251 19/14 A2979
Flight Comments